createdAt,value
2022-07-30T02:51:51.066Z,13.59
2022-07-30T02:52:57.130Z,13.60
2022-07-30T02:54:00.511Z,13.60
2022-07-30T02:55:06.139Z,13.60
2022-07-30T02:56:10.952Z,13.60
2022-07-30T02:57:19.772Z,13.60
2022-07-30T02:58:25.691Z,13.58
2022-07-30T02:59:33.326Z,13.61
2022-07-30T03:00:36.164Z,13.61
2022-07-30T03:01:41.591Z,13.60
2022-07-30T03:02:44.913Z,13.59
2022-07-30T03:03:50.895Z,13.62
2022-07-30T03:04:58.218Z,13.59
2022-07-30T03:06:05.429Z,13.58
2022-07-30T03:07:09.158Z,13.54
2022-07-30T03:08:14.517Z,13.56
2022-07-30T03:09:22.413Z,13.52
2022-07-30T03:10:28.682Z,13.50
2022-07-30T03:11:32.064Z,13.50
2022-07-30T03:12:37.994Z,13.46
2022-07-30T03:13:40.300Z,13.42
2022-07-30T03:14:45.103Z,13.40
2022-07-30T03:15:49.889Z,13.37
2022-07-30T03:16:59.124Z,13.36
2022-07-30T03:18:02.969Z,13.33
2022-07-30T03:19:11.628Z,13.34
2022-07-30T03:20:19.340Z,13.30
2022-07-30T03:21:28.535Z,13.19
2022-07-30T03:22:33.222Z,13.15
2022-07-30T03:23:39.466Z,13.24
2022-07-30T03:24:45.115Z,13.20
2022-07-30T03:25:55.089Z,13.24
2022-07-30T03:27:00.104Z,13.18
2022-07-30T03:28:06.685Z,13.15
2022-07-30T03:29:10.420Z,13.16
2022-07-30T03:30:16.145Z,13.09
2022-07-30T03:31:19.117Z,13.04
2022-07-30T03:32:26.140Z,13.00
2022-07-30T03:33:38.240Z,12.92
2022-07-30T03:34:45.393Z,12.84
2022-07-30T03:35:52.471Z,12.80
2022-07-30T03:36:57.894Z,12.82
2022-07-30T03:38:03.204Z,12.83
2022-07-30T03:39:07.267Z,12.84
2022-07-30T03:40:12.806Z,12.83
2022-07-30T03:41:15.873Z,12.82
2022-07-30T03:42:20.693Z,12.85
2022-07-30T03:43:33.010Z,12.98
2022-07-30T03:44:38.947Z,12.96
2022-07-30T03:45:47.060Z,12.91
2022-07-30T03:46:51.054Z,12.94
2022-07-30T03:47:57.586Z,12.93
2022-07-30T03:49:00.711Z,12.99
2022-07-30T03:50:06.267Z,13.00
2022-07-30T03:51:11.475Z,13.02
2022-07-30T03:52:16.693Z,12.97
2022-07-30T03:53:20.785Z,12.92
2022-07-30T03:54:26.454Z,12.94
2022-07-30T03:55:29.002Z,12.99
2022-07-30T03:56:34.057Z,12.98
2022-07-30T03:57:36.819Z,13.04
2022-07-30T03:58:41.698Z,13.06
2022-07-30T03:59:44.350Z,13.07
2022-07-30T04:00:51.201Z,13.11
2022-07-30T04:01:53.326Z,13.07
2022-07-30T04:02:58.640Z,13.01
2022-07-30T04:04:08.444Z,12.95
2022-07-30T04:05:14.816Z,12.91
2022-07-30T04:06:19.540Z,12.88
2022-07-30T04:07:24.213Z,12.90
2022-07-30T04:08:27.528Z,12.85
2022-07-30T04:09:32.097Z,12.83
2022-07-30T04:10:34.312Z,12.87
2022-07-30T04:11:41.012Z,12.94
2022-07-30T04:12:43.943Z,12.92
2022-07-30T04:13:48.557Z,12.97
2022-07-30T04:14:50.669Z,13.03
2022-07-30T04:16:37.978Z,13.15
2022-07-30T04:17:29.415Z,13.08
2022-07-30T04:18:40.321Z,13.13
2022-07-30T04:19:46.940Z,13.10
2022-07-30T04:20:54.187Z,13.11
2022-07-30T04:22:00.607Z,13.07
2022-07-30T04:23:05.818Z,13.09
2022-07-30T04:24:09.122Z,13.12
2022-07-30T04:25:18.462Z,13.14
2022-07-30T04:26:26.634Z,13.16
2022-07-30T04:27:32.137Z,13.15
2022-07-30T04:28:35.145Z,13.18
2022-07-30T04:29:40.115Z,13.21
2022-07-30T04:30:42.304Z,13.16
2022-07-30T04:31:47.339Z,13.15
2022-07-30T04:32:50.760Z,13.11
2022-07-30T04:33:55.426Z,13.15
2022-07-30T04:35:02.906Z,13.11
2022-07-30T04:36:11.163Z,13.10
2022-07-30T04:37:23.148Z,13.13
2022-07-30T04:38:25.704Z,13.10
2022-07-30T04:39:30.814Z,13.09
2022-07-30T04:40:33.027Z,13.12
2022-07-30T04:41:48.267Z,13.15
2022-07-30T04:42:51.485Z,13.16
2022-07-30T04:43:56.501Z,13.19
2022-07-30T04:44:59.347Z,13.19
2022-07-30T04:46:04.149Z,13.18
2022-07-30T04:47:06.749Z,13.16
2022-07-30T04:48:12.252Z,13.15
